Time;durP1;ratioP1;P1;durP2;ratioP2;P2;SDS_P1;SDS_P2;PMS_P1;PMS_P2;Temp;Humidity;BMP_temperature;BMP_pressure;BME280_temperature;BME280_humidity;BME280_pressure;Samples;Min_cycle;Max_cycle;Signal;HPM_P1;HPM_P2
2021/12/06 00:04:06;;;;;;;;;;;2.40;99.90;;;;;;5098592;28;19919;-79
2021/12/06 00:06:33;;;;;;;;;;;2.40;99.90;;;;;;5098593;28;19920;-79
2021/12/06 00:09:00;;;;;;;;;;;2.40;99.90;;;;;;5080021;28;20014;-79
2021/12/06 00:11:25;;;;;;;;;;;2.40;99.90;;;;;;5080186;28;19923;-79
2021/12/06 00:13:51;;;;;;;;;;;2.40;99.90;;;;;;5098498;28;19920;-79
2021/12/06 00:16:20;;;;;;;;;;;2.80;99.90;;;;;;5098192;28;20313;-79
2021/12/06 00:18:46;;;;;;;;;;;2.30;99.90;;;;;;5098426;28;19919;-79
2021/12/06 00:21:12;;;;;;;;;;;2.30;99.90;;;;;;5098272;28;19920;-79
2021/12/06 00:23:38;;;;;;;;;;;2.30;99.90;;;;;;5097967;28;19920;-79
2021/12/06 00:26:04;;;;;;;;;;;2.30;99.90;;;;;;5098240;28;20011;-79
2021/12/06 00:28:30;;;;;;;;;;;2.20;99.90;;;;;;5098287;28;19920;-79
2021/12/06 00:30:56;;;;;;;;;;;2.20;99.90;;;;;;5098074;28;20400;-79
2021/12/06 00:33:22;;;;;;;;;;;2.20;99.90;;;;;;5100918;28;20418;-79
2021/12/06 00:35:48;;;;;;;;;;;2.30;99.90;;;;;;5101490;28;19916;-80
2021/12/06 00:38:14;;;;;;;;;;;2.20;99.90;;;;;;5102103;28;19927;-80
2021/12/06 00:40:42;;;;;;;;;;;2.10;99.90;;;;;;5082821;28;19916;-79
2021/12/06 00:43:08;;;;;;;;;;;2.10;99.90;;;;;;5101398;28;19927;-80
2021/12/06 00:48:55;;;;;;;;;;;2.20;99.90;;;;;;5102047;28;19937;-80
2021/12/06 00:51:21;;;;;;;;;;;2.20;99.90;;;;;;5101970;28;19920;-80
2021/12/06 00:53:46;;;;;;;;;;;2.20;99.90;;;;;;5101413;28;20357;-79
2021/12/06 00:56:12;;;;;;;;;;;2.50;99.90;;;;;;5101405;28;20387;-79
2021/12/06 00:58:37;;;;;;;;;;;2.20;99.90;;;;;;5066652;28;20362;-80
2021/12/06 01:01:04;;;;;;;;;;;2.20;99.90;;;;;;5099789;28;19983;-79
2021/12/06 01:03:31;;;;;;;;;;;2.20;99.90;;;;;;5082272;28;19920;-79
2021/12/06 01:05:56;;;;;;;;;;;2.10;99.90;;;;;;5100539;28;19920;-79
2021/12/06 01:08:22;;;;;;;;;;;2.10;99.90;;;;;;5081775;28;19927;-80
2021/12/06 01:10:49;;;;;;;;;;;2.30;99.90;;;;;;5099532;28;20364;-79
2021/12/06 01:13:15;;;;;;;;;;;2.20;99.90;;;;;;5100125;28;20432;-79
2021/12/06 01:19:02;;;;;;;;;;;2.10;99.90;;;;;;5099928;28;19954;-79
2021/12/06 01:21:42;;;;;;;;;;;2.10;99.90;;;;;;5099877;28;19920;-79
2021/12/06 01:24:09;;;;;;;;;;;2.10;99.90;;;;;;5100008;28;19926;-79
2021/12/06 01:31:53;;;;;;;;;;;2.10;99.90;;;;;;5100069;28;19920;-79
2021/12/06 01:39:52;;;;;;;;;;;2.10;99.90;;;;;;5017561;28;20419;-79
2021/12/06 01:42:18;;;;;;;;;;;2.80;99.90;;;;;;5017718;28;19973;-79
2021/12/06 01:44:48;;;;;;;;;;;2.10;99.90;;;;;;5017897;28;19921;-79
2021/12/06 01:47:15;;;;;;;;;;;2.10;99.90;;;;;;5017402;28;19925;-79
2021/12/06 01:49:43;;;;;;;;;;;2.10;99.90;;;;;;5001089;28;20414;-80
2021/12/06 01:52:10;;;;;;;;;;;2.10;99.90;;;;;;5017347;28;19959;-79
2021/12/06 01:54:36;;;;;;;;;;;2.10;99.90;;;;;;5000891;28;19929;-79
2021/12/06 01:57:02;;;;;;;;;;;2.10;99.90;;;;;;5017522;28;19921;-80
2021/12/06 01:59:27;;;;;;;;;;;2.10;99.90;;;;;;5017488;28;20008;-79
2021/12/06 02:01:53;;;;;;;;;;;2.10;99.90;;;;;;5017237;28;19972;-79
2021/12/06 02:04:19;;;;;;;;;;;2.10;99.90;;;;;;5016696;28;20032;-80
2021/12/06 02:06:45;;;;;;;;;;;2.10;99.90;;;;;;5016416;28;19928;-79
2021/12/06 02:09:12;;;;;;;;;;;2.00;99.90;;;;;;5016752;28;20347;-79
2021/12/06 02:11:39;;;;;;;;;;;2.60;99.90;;;;;;5017048;28;19928;-80
2021/12/06 02:14:32;;;;;;;;;;;2.10;99.90;;;;;;5056939;28;19924;-79
2021/12/06 02:17:11;;;;;;;;;;;2.00;99.90;;;;;;5098696;28;20362;-80
2021/12/06 02:19:40;;;;;;;;;;;2.00;99.90;;;;;;5098830;28;20014;-79
2021/12/06 02:22:07;;;;;;;;;;;2.10;99.90;;;;;;5080756;28;19920;-79
2021/12/06 02:24:34;;;;;;;;;;;2.10;99.90;;;;;;5098714;28;19927;-79
2021/12/06 02:27:00;;;;;;;;;;;2.10;99.90;;;;;;5079986;28;19974;-80
2021/12/06 02:29:26;;;;;;;;;;;2.10;99.90;;;;;;5099074;28;19927;-79
2021/12/06 02:31:52;;;;;;;;;;;2.00;99.90;;;;;;5099179;28;19950;-80
2021/12/06 02:34:18;;;;;;;;;;;2.10;99.90;;;;;;5080387;28;19955;-79
2021/12/06 02:36:46;;;;;;;;;;;2.10;99.90;;;;;;5098880;28;19942;-79
2021/12/06 02:39:19;;;;;;;;;;;2.10;99.90;;;;;;5099076;28;19975;-79
2021/12/06 02:41:46;;;;;;;;;;;2.10;99.90;;;;;;5098610;28;19957;-79
2021/12/06 02:44:12;;;;;;;;;;;2.10;99.90;;;;;;5098943;28;19920;-79
2021/12/06 02:46:37;;;;;;;;;;;2.80;99.90;;;;;;5099055;28;20374;-80
2021/12/06 02:49:03;;;;;;;;;;;2.10;99.90;;;;;;5099101;28;19958;-79
2021/12/06 02:51:29;;;;;;;;;;;2.20;99.90;;;;;;5098408;28;20335;-80
2021/12/06 02:53:55;;;;;;;;;;;2.10;99.90;;;;;;5080656;28;19920;-79
2021/12/06 03:05:50;;;;;;;;;;;2.10;99.90;;;;;;5035259;28;20421;-79
2021/12/06 03:08:34;;;;;;;;;;;2.10;99.90;;;;;;5019087;28;19920;-79
2021/12/06 03:11:00;;;;;;;;;;;2.10;99.90;;;;;;5035494;28;19921;-79
2021/12/06 03:13:25;;;;;;;;;;;2.10;99.90;;;;;;5019114;28;20020;-79
2021/12/06 03:15:51;;;;;;;;;;;2.10;99.90;;;;;;5035338;28;19968;-80
2021/12/06 03:18:16;;;;;;;;;;;2.10;99.90;;;;;;5035336;28;19921;-79
2021/12/06 03:20:42;;;;;;;;;;;2.10;99.90;;;;;;5035474;28;19921;-79
2021/12/06 03:23:08;;;;;;;;;;;2.10;99.90;;;;;;5034133;28;19966;-79
2021/12/06 03:25:33;;;;;;;;;;;2.10;99.90;;;;;;5034892;28;20085;-80
2021/12/06 03:28:00;;;;;;;;;;;2.10;99.90;;;;;;5018423;28;19921;-79
2021/12/06 03:30:25;;;;;;;;;;;2.10;99.90;;;;;;5035125;28;19932;-80
2021/12/06 03:32:51;;;;;;;;;;;2.10;99.90;;;;;;5066596;28;19919;-79
2021/12/06 03:35:16;;;;;;;;;;;2.10;99.90;;;;;;5097205;28;19920;-79
2021/12/06 03:37:42;;;;;;;;;;;2.10;99.90;;;;;;5097251;28;19927;-79
2021/12/06 03:40:08;;;;;;;;;;;2.10;99.90;;;;;;5097893;28;20366;-79
2021/12/06 03:42:33;;;;;;;;;;;2.10;99.90;;;;;;5097854;28;20316;-79
2021/12/06 03:44:59;;;;;;;;;;;2.10;99.90;;;;;;5097727;28;19926;-79
2021/12/06 03:47:27;;;;;;;;;;;2.10;99.90;;;;;;5097935;28;19924;-79
2021/12/06 03:49:54;;;;;;;;;;;2.80;99.90;;;;;;5097492;28;19920;-79
2021/12/06 03:52:19;;;;;;;;;;;2.10;99.90;;;;;;5097456;28;19926;-79
2021/12/06 03:54:46;;;;;;;;;;;2.10;99.90;;;;;;5096891;28;19963;-80
2021/12/06 03:57:12;;;;;;;;;;;2.10;99.90;;;;;;5079206;28;19920;-79
2021/12/06 03:59:37;;;;;;;;;;;2.10;99.90;;;;;;5078674;28;19920;-79
2021/12/06 04:02:03;;;;;;;;;;;2.10;99.90;;;;;;5097376;28;19927;-79
2021/12/06 04:04:29;;;;;;;;;;;2.10;99.90;;;;;;5078948;28;19920;-79
2021/12/06 04:06:55;;;;;;;;;;;2.00;99.90;;;;;;5097365;28;19923;-79
2021/12/06 04:09:20;;;;;;;;;;;2.10;99.90;;;;;;5079015;28;20403;-80
2021/12/06 04:11:46;;;;;;;;;;;2.10;99.90;;;;;;5097527;28;19920;-79
2021/12/06 04:14:12;;;;;;;;;;;2.10;99.90;;;;;;5096953;28;19916;-79
2021/12/06 04:20:00;;;;;;;;;;;2.10;99.90;;;;;;5096387;28;19914;-79
2021/12/06 04:22:25;;;;;;;;;;;2.00;99.90;;;;;;5096670;28;19920;-79
2021/12/06 04:24:51;;;;;;;;;;;2.00;99.90;;;;;;5078699;28;19927;-79
2021/12/06 04:27:18;;;;;;;;;;;2.00;99.90;;;;;;5097423;28;19924;-79
2021/12/06 04:29:46;;;;;;;;;;;2.80;99.90;;;;;;5078340;28;20431;-79
2021/12/06 04:32:12;;;;;;;;;;;2.10;99.90;;;;;;5096874;28;19924;-79
2021/12/06 04:34:37;;;;;;;;;;;2.10;99.90;;;;;;5097241;28;20349;-79
2021/12/06 04:37:03;;;;;;;;;;;2.10;99.90;;;;;;5097092;28;20327;-80
2021/12/06 04:39:29;;;;;;;;;;;2.10;99.90;;;;;;5096985;28;19943;-79
2021/12/06 04:41:54;;;;;;;;;;;2.10;99.90;;;;;;5096832;28;19942;-79
2021/12/06 04:44:20;;;;;;;;;;;2.10;99.90;;;;;;5096681;28;19920;-79
2021/12/06 04:50:09;;;;;;;;;;;2.10;99.90;;;;;;5100669;28;19977;-79
2021/12/06 04:52:34;;;;;;;;;;;2.10;99.90;;;;;;5082070;28;20293;-80
2021/12/06 04:55:00;;;;;;;;;;;2.10;99.90;;;;;;5100447;28;19930;-79
2021/12/06 04:57:33;;;;;;;;;;;2.40;99.90;;;;;;5100657;28;19920;-79
2021/12/06 05:00:04;;;;;;;;;;;2.20;99.90;;;;;;5100359;28;19919;-79
2021/12/06 05:02:33;;;;;;;;;;;2.10;99.90;;;;;;5100396;28;19998;-79
2021/12/06 05:05:05;;;;;;;;;;;2.10;99.90;;;;;;5081377;28;19923;-79
2021/12/06 05:07:33;;;;;;;;;;;2.20;99.90;;;;;;5100083;28;19920;-79
2021/12/06 05:09:59;;;;;;;;;;;2.20;99.90;;;;;;5082285;28;19950;-79
2021/12/06 05:12:26;;;;;;;;;;;2.20;99.90;;;;;;5109898;28;19931;-79
2021/12/06 05:14:52;;;;;;;;;;;2.20;99.90;;;;;;5094236;28;19927;-80
2021/12/06 05:17:18;;;;;;;;;;;2.20;99.90;;;;;;5112646;28;19983;-79
2021/12/06 05:19:44;;;;;;;;;;;2.10;99.90;;;;;;5093853;28;20301;-79
2021/12/06 05:22:10;;;;;;;;;;;2.10;99.90;;;;;;5108425;28;20271;-79
2021/12/06 05:24:35;;;;;;;;;;;2.20;99.90;;;;;;5081933;28;19927;-79
2021/12/06 05:27:01;;;;;;;;;;;2.10;99.90;;;;;;5100246;28;19979;-79
2021/12/06 05:29:28;;;;;;;;;;;2.10;99.90;;;;;;5100887;28;19923;-79
2021/12/06 05:35:16;;;;;;;;;;;2.10;99.90;;;;;;5100041;28;19956;-79
2021/12/06 05:37:43;;;;;;;;;;;2.20;99.90;;;;;;5100750;28;19920;-79
2021/12/06 05:40:11;;;;;;;;;;;2.20;99.90;;;;;;5082110;28;19920;-79
2021/12/06 05:42:36;;;;;;;;;;;2.20;99.90;;;;;;5099922;28;19927;-79
2021/12/06 05:45:03;;;;;;;;;;;2.20;99.90;;;;;;5100012;28;19920;-79
2021/12/06 05:47:28;;;;;;;;;;;2.20;99.90;;;;;;5099866;28;19951;-79
2021/12/06 05:49:54;;;;;;;;;;;2.20;99.90;;;;;;5081867;28;19931;-79
2021/12/06 05:52:19;;;;;;;;;;;2.20;99.90;;;;;;5081213;28;20031;-79
2021/12/06 05:54:45;;;;;;;;;;;2.20;99.90;;;;;;5099857;28;19926;-79
2021/12/06 05:57:11;;;;;;;;;;;2.70;99.90;;;;;;5064044;28;19963;-79
2021/12/06 05:59:37;;;;;;;;;;;2.20;99.90;;;;;;5081194;28;19983;-79
2021/12/06 06:05:25;;;;;;;;;;;2.20;99.90;;;;;;5098979;28;19973;-79
2021/12/06 06:07:51;;;;;;;;;;;2.60;99.90;;;;;;5099714;28;19920;-79
2021/12/06 06:10:17;;;;;;;;;;;2.30;99.90;;;;;;5098965;28;20342;-79
2021/12/06 06:12:43;;;;;;;;;;;2.30;99.90;;;;;;5099570;28;20342;-79
2021/12/06 06:15:09;;;;;;;;;;;2.20;99.90;;;;;;5097704;28;19927;-79
2021/12/06 06:17:43;;;;;;;;;;;2.20;99.90;;;;;;5098508;28;19920;-79
2021/12/06 06:20:21;;;;;;;;;;;2.20;99.90;;;;;;5099426;28;19926;-79
2021/12/06 06:22:46;;;;;;;;;;;2.30;99.90;;;;;;5099175;28;19920;-79
2021/12/06 06:25:12;;;;;;;;;;;2.30;99.90;;;;;;5080348;28;19920;-79
2021/12/06 06:27:38;;;;;;;;;;;2.30;99.90;;;;;;5098243;28;19923;-79
2021/12/06 06:30:04;;;;;;;;;;;2.30;99.90;;;;;;5097528;28;20014;-79
2021/12/06 06:32:29;;;;;;;;;;;2.30;99.90;;;;;;5097509;28;20333;-79
2021/12/06 06:34:55;;;;;;;;;;;2.20;99.90;;;;;;5097881;28;20021;-80
2021/12/06 06:37:21;;;;;;;;;;;2.40;99.90;;;;;;5098256;28;19920;-80
2021/12/06 06:39:46;;;;;;;;;;;2.20;99.90;;;;;;5099119;28;19924;-79
2021/12/06 06:42:12;;;;;;;;;;;2.30;99.90;;;;;;5098490;28;20409;-79
2021/12/06 06:44:37;;;;;;;;;;;2.30;99.90;;;;;;5098766;28;19927;-79
2021/12/06 06:50:25;;;;;;;;;;;2.30;99.90;;;;;;5098396;28;19993;-79
2021/12/06 06:52:53;;;;;;;;;;;2.30;99.90;;;;;;5079995;28;19920;-79
2021/12/06 06:55:19;;;;;;;;;;;3.20;99.90;;;;;;5098687;28;20011;-79
2021/12/06 06:57:45;;;;;;;;;;;2.70;99.90;;;;;;5098374;28;20060;-79
2021/12/06 07:00:16;;;;;;;;;;;2.30;99.90;;;;;;5098006;28;19920;-80
2021/12/06 07:02:42;;;;;;;;;;;2.30;99.90;;;;;;5098485;28;19942;-79
2021/12/06 07:05:08;;;;;;;;;;;2.30;99.90;;;;;;5097789;28;20421;-79
2021/12/06 07:07:33;;;;;;;;;;;2.30;99.90;;;;;;5097281;28;19971;-79
2021/12/06 07:09:59;;;;;;;;;;;2.30;99.90;;;;;;5078822;28;19920;-79
2021/12/06 07:12:25;;;;;;;;;;;2.30;99.90;;;;;;5097964;28;19924;-79
2021/12/06 07:14:50;;;;;;;;;;;2.30;99.90;;;;;;5097214;28;19920;-79
2021/12/06 07:20:38;;;;;;;;;;;2.30;99.90;;;;;;5097122;28;19960;-79
2021/12/06 07:23:04;;;;;;;;;;;2.30;99.90;;;;;;5078589;28;19920;-79
2021/12/06 07:25:30;;;;;;;;;;;2.30;99.90;;;;;;5096676;28;20012;-79
2021/12/06 07:27:57;;;;;;;;;;;2.40;99.90;;;;;;5097109;28;20439;-80
2021/12/06 07:30:23;;;;;;;;;;;2.40;99.90;;;;;;5098121;28;19920;-79
2021/12/06 07:32:50;;;;;;;;;;;3.20;99.90;;;;;;5098600;28;20390;-79
2021/12/06 07:35:16;;;;;;;;;;;2.40;99.90;;;;;;5079847;28;19927;-79
2021/12/06 07:37:42;;;;;;;;;;;2.40;99.90;;;;;;5098229;28;19942;-79
2021/12/06 07:40:09;;;;;;;;;;;2.40;99.90;;;;;;5097621;28;19920;-79
2021/12/06 07:42:35;;;;;;;;;;;2.40;99.90;;;;;;5098386;28;19946;-79
2021/12/06 07:45:01;;;;;;;;;;;2.40;99.90;;;;;;5079588;28;19919;-79
2021/12/06 07:50:48;;;;;;;;;;;2.50;99.90;;;;;;5097122;28;19922;-79
2021/12/06 07:53:14;;;;;;;;;;;2.50;99.90;;;;;;5097336;28;19983;-79
2021/12/06 07:55:39;;;;;;;;;;;2.50;99.90;;;;;;5078619;28;20382;-79
2021/12/06 07:58:06;;;;;;;;;;;2.50;99.90;;;;;;5097612;28;20041;-80
2021/12/06 08:00:33;;;;;;;;;;;2.50;99.90;;;;;;5097143;28;19920;-80
2021/12/06 08:02:59;;;;;;;;;;;2.50;99.90;;;;;;5097283;28;19920;-79
2021/12/06 08:05:29;;;;;;;;;;;2.50;99.90;;;;;;5097741;28;20007;-80
2021/12/06 08:07:55;;;;;;;;;;;2.50;99.90;;;;;;5098004;28;19920;-79
2021/12/06 08:10:21;;;;;;;;;;;2.50;99.90;;;;;;5097643;28;19926;-79
2021/12/06 08:12:46;;;;;;;;;;;2.60;99.90;;;;;;5078235;28;20270;-79
2021/12/06 08:15:12;;;;;;;;;;;2.60;99.90;;;;;;5096929;28;20339;-79
2021/12/06 08:21:00;;;;;;;;;;;2.60;99.90;;;;;;5097736;28;19953;-79
2021/12/06 08:23:27;;;;;;;;;;;2.60;99.90;;;;;;5101085;28;20387;-79
2021/12/06 08:25:53;;;;;;;;;;;2.70;99.90;;;;;;5100991;28;19920;-79
2021/12/06 08:28:19;;;;;;;;;;;2.70;99.90;;;;;;5100552;28;19920;-79
2021/12/06 08:30:45;;;;;;;;;;;2.70;99.90;;;;;;5101090;28;19924;-79
2021/12/06 08:33:12;;;;;;;;;;;2.70;99.90;;;;;;5081398;28;19927;-79
2021/12/06 08:35:40;;;;;;;;;;;2.70;99.90;;;;;;5081951;28;20370;-79
2021/12/06 08:38:07;;;;;;;;;;;2.70;99.90;;;;;;5082157;28;19919;-79
2021/12/06 08:40:33;;;;;;;;;;;2.70;99.90;;;;;;5081515;28;19916;-79
2021/12/06 08:42:58;;;;;;;;;;;2.80;99.90;;;;;;5081399;28;19928;-79
2021/12/06 08:45:26;;;;;;;;;;;2.80;99.90;;;;;;5100165;28;19924;-79
2021/12/06 08:51:16;;;;;;;;;;;2.80;99.90;;;;;;5098707;28;19922;-79
2021/12/06 08:53:42;;;;;;;;;;;3.20;99.90;;;;;;5100640;28;19927;-79
2021/12/06 08:56:07;;;;;;;;;;;2.90;99.90;;;;;;5082395;28;19931;-79
2021/12/06 08:58:33;;;;;;;;;;;2.90;99.90;;;;;;5099976;28;19920;-80
2021/12/06 09:00:58;;;;;;;;;;;2.90;99.90;;;;;;5099919;28;19916;-79
2021/12/06 09:03:24;;;;;;;;;;;2.90;99.90;;;;;;5100557;28;19978;-79
2021/12/06 09:05:52;;;;;;;;;;;2.90;99.90;;;;;;5064612;28;19966;-79
2021/12/06 09:08:18;;;;;;;;;;;2.90;99.90;;;;;;5099832;28;19916;-79
2021/12/06 09:10:44;;;;;;;;;;;2.90;99.90;;;;;;5081732;28;19973;-79
2021/12/06 09:13:10;;;;;;;;;;;2.90;99.90;;;;;;5099723;28;19959;-79
2021/12/06 09:15:35;;;;;;;;;;;2.90;99.90;;;;;;5099506;28;19920;-80
2021/12/06 09:21:23;;;;;;;;;;;2.90;99.90;;;;;;5098934;28;19915;-79
2021/12/06 09:23:49;;;;;;;;;;;2.80;99.90;;;;;;5098626;28;20357;-80
2021/12/06 09:26:15;;;;;;;;;;;2.80;99.90;;;;;;5080929;28;19930;-79
2021/12/06 09:28:41;;;;;;;;;;;2.80;99.90;;;;;;5098899;28;19920;-79
2021/12/06 09:31:07;;;;;;;;;;;2.80;99.90;;;;;;5064549;28;19920;-79
2021/12/06 09:33:34;;;;;;;;;;;2.80;99.90;;;;;;5098194;28;19920;-79
2021/12/06 09:36:00;;;;;;;;;;;2.80;99.90;;;;;;5098968;28;20396;-80
2021/12/06 09:38:28;;;;;;;;;;;2.80;99.90;;;;;;5098293;28;19962;-80
2021/12/06 09:40:55;;;;;;;;;;;2.80;99.90;;;;;;5097928;28;20421;-79
2021/12/06 09:43:21;;;;;;;;;;;2.80;99.90;;;;;;5098080;28;19927;-79
2021/12/06 09:45:48;;;;;;;;;;;3.50;99.90;;;;;;5098416;28;19981;-80
2021/12/06 09:48:16;;;;;;;;;;;2.80;99.90;;;;;;5098705;28;19942;-79
2021/12/06 09:50:47;;;;;;;;;;;2.80;99.90;;;;;;5098189;28;20015;-79
2021/12/06 09:53:20;;;;;;;;;;;2.80;99.90;;;;;;5098624;28;19924;-79
2021/12/06 09:55:47;;;;;;;;;;;2.80;99.90;;;;;;5098651;28;19920;-79
2021/12/06 09:58:13;;;;;;;;;;;2.80;99.90;;;;;;5099677;28;19920;-79
2021/12/06 10:00:41;;;;;;;;;;;2.80;99.90;;;;;;5098118;28;19920;-79
2021/12/06 10:06:30;;;;;;;;;;;2.80;99.90;;;;;;5098041;28;19915;-79
2021/12/06 10:08:57;;;;;;;;;;;3.20;99.90;;;;;;5080067;28;20415;-79
2021/12/06 10:11:24;;;;;;;;;;;2.70;99.90;;;;;;5097703;28;19947;-79
2021/12/06 10:13:51;;;;;;;;;;;2.60;99.90;;;;;;5097159;28;20287;-80
2021/12/06 10:16:17;;;;;;;;;;;3.00;99.90;;;;;;5098185;28;19951;-80
2021/12/06 10:18:43;;;;;;;;;;;2.80;99.90;;;;;;5097992;28;19943;-79
2021/12/06 10:21:09;;;;;;;;;;;2.50;99.90;;;;;;5098022;28;20338;-79
2021/12/06 10:23:37;;;;;;;;;;;2.50;99.90;;;;;;5097265;28;20366;-79
2021/12/06 10:26:03;;;;;;;;;;;2.40;99.90;;;;;;5097420;28;19926;-79
2021/12/06 10:28:30;;;;;;;;;;;2.40;99.90;;;;;;5097684;28;19927;-79
2021/12/06 10:37:54;;;;;;;;;;;2.30;99.90;;;;;;4996031;28;20015;-80
2021/12/06 10:40:19;;;;;;;;;;;2.30;99.90;;;;;;4994954;28;20004;-79
2021/12/06 10:42:47;;;;;;;;;;;2.30;99.90;;;;;;4995132;28;20027;-79
2021/12/06 10:45:16;;;;;;;;;;;2.30;99.90;;;;;;4995443;28;19922;-80
2021/12/06 10:47:41;;;;;;;;;;;2.20;99.90;;;;;;4995394;28;20376;-79
2021/12/06 10:50:15;;;;;;;;;;;2.40;99.90;;;;;;4995673;28;19921;-79
2021/12/06 10:52:51;;;;;;;;;;;2.30;99.90;;;;;;4979505;28;19922;-79
2021/12/06 10:55:17;;;;;;;;;;;2.30;99.90;;;;;;4995796;28;19925;-79
2021/12/06 10:57:46;;;;;;;;;;;2.30;99.90;;;;;;4995439;28;20351;-79
2021/12/06 11:00:32;;;;;;;;;;;2.30;99.90;;;;;;4995478;28;19968;-80
2021/12/06 11:02:58;;;;;;;;;;;2.40;99.90;;;;;;4995294;28;19945;-80
2021/12/06 11:05:25;;;;;;;;;;;2.40;99.90;;;;;;5090222;28;19920;-79
2021/12/06 11:08:10;;;;;;;;;;;2.40;99.90;;;;;;5097407;28;20365;-79
2021/12/06 11:10:44;;;;;;;;;;;2.40;99.90;;;;;;5078318;28;19920;-79
2021/12/06 11:13:11;;;;;;;;;;;2.40;99.90;;;;;;5096860;28;20383;-79
2021/12/06 11:15:50;;;;;;;;;;;2.40;99.90;;;;;;5097324;28;19959;-79
2021/12/06 11:18:27;;;;;;;;;;;2.40;99.90;;;;;;5078833;28;19920;-79
2021/12/06 11:20:53;;;;;;;;;;;2.40;99.90;;;;;;5096583;28;19924;-80
2021/12/06 11:23:18;;;;;;;;;;;2.50;99.90;;;;;;5096332;28;20034;-79
2021/12/06 11:25:53;;;;;;;;;;;2.50;99.90;;;;;;5097365;28;19924;-79
2021/12/06 11:28:22;;;;;;;;;;;2.50;99.90;;;;;;5096217;28;19927;-79
2021/12/06 11:30:56;;;;;;;;;;;2.50;99.90;;;;;;5096195;28;19920;-79
2021/12/06 11:33:25;;;;;;;;;;;2.60;99.90;;;;;;5078025;28;19920;-79
2021/12/06 11:35:51;;;;;;;;;;;2.60;99.90;;;;;;5096361;28;19916;-79
2021/12/06 11:38:18;;;;;;;;;;;2.60;99.90;;;;;;5078494;28;19920;-79
2021/12/06 11:40:43;;;;;;;;;;;2.60;99.90;;;;;;5096421;28;20273;-79
2021/12/06 11:43:13;;;;;;;;;;;2.60;99.90;;;;;;5077858;28;19959;-79
2021/12/06 11:45:42;;;;;;;;;;;2.60;99.90;;;;;;5096685;28;19916;-80
2021/12/06 11:48:10;;;;;;;;;;;2.60;99.90;;;;;;5096057;28;19920;-80
2021/12/06 11:50:40;;;;;;;;;;;2.60;99.90;;;;;;5095110;28;19927;-79
2021/12/06 11:53:07;;;;;;;;;;;2.70;99.90;;;;;;5096094;28;20370;-79
2021/12/06 11:55:34;;;;;;;;;;;2.70;99.90;;;;;;5095116;28;19927;-79
2021/12/06 11:58:00;;;;;;;;;;;2.70;99.90;;;;;;5095839;28;19943;-79
2021/12/06 12:00:26;;;;;;;;;;;3.00;99.90;;;;;;5096168;28;19924;-79
2021/12/06 12:02:53;;;;;;;;;;;2.70;99.90;;;;;;5095956;28;19920;-80
2021/12/06 12:05:25;;;;;;;;;;;2.80;99.90;;;;;;5096259;28;20289;-79
2021/12/06 12:08:08;;;;;;;;;;;2.80;99.90;;;;;;5078203;28;19920;-79
2021/12/06 12:10:53;;;;;;;;;;;2.80;99.90;;;;;;5095647;28;19924;-79
2021/12/06 12:13:27;;;;;;;;;;;2.80;99.90;;;;;;5096190;28;19973;-79
2021/12/06 12:15:55;;;;;;;;;;;2.80;99.90;;;;;;5062055;28;19920;-79
2021/12/06 12:18:21;;;;;;;;;;;2.80;99.90;;;;;;5095927;28;19927;-79
2021/12/06 12:20:47;;;;;;;;;;;3.50;99.90;;;;;;5078326;28;19920;-79
2021/12/06 12:23:13;;;;;;;;;;;2.90;99.90;;;;;;5095969;28;19926;-79
2021/12/06 12:25:48;;;;;;;;;;;3.00;99.90;;;;;;5095468;28;19920;-79
2021/12/06 12:28:23;;;;;;;;;;;3.10;99.90;;;;;;5096358;28;19920;-80
2021/12/06 12:30:51;;;;;;;;;;;3.10;99.90;;;;;;5095950;28;19927;-79
2021/12/06 12:33:19;;;;;;;;;;;3.20;99.90;;;;;;5101630;28;19920;-79
2021/12/06 12:35:47;;;;;;;;;;;3.20;99.90;;;;;;5085596;28;19920;-79
2021/12/06 12:38:16;;;;;;;;;;;3.20;99.90;;;;;;5102058;28;19919;-80
2021/12/06 12:40:42;;;;;;;;;;;3.30;99.90;;;;;;5065584;28;19955;-79
2021/12/06 12:43:09;;;;;;;;;;;3.20;99.90;;;;;;5083268;28;19920;-79
2021/12/06 12:45:43;;;;;;;;;;;3.20;99.90;;;;;;5096180;28;19950;-80
2021/12/06 12:48:09;;;;;;;;;;;3.10;99.90;;;;;;5078390;28;19920;-79
2021/12/06 12:50:35;;;;;;;;;;;3.10;99.90;;;;;;5097310;28;19924;-79
2021/12/06 12:53:08;;;;;;;;;;;3.10;99.90;;;;;;5095827;28;19920;-79
2021/12/06 12:55:41;;;;;;;;;;;3.10;99.90;;;;;;5096597;28;20010;-79
2021/12/06 12:58:14;;;;;;;;;;;3.00;99.90;;;;;;5095788;28;19920;-79
2021/12/06 13:01:01;;;;;;;;;;;3.10;99.90;;;;;;5096003;28;19920;-79
2021/12/06 13:03:31;;;;;;;;;;;3.00;99.90;;;;;;5077747;28;19924;-79
2021/12/06 13:06:12;;;;;;;;;;;3.00;99.90;;;;;;5096135;28;20282;-79
2021/12/06 13:08:37;;;;;;;;;;;3.00;99.90;;;;;;5099395;28;19926;-79
2021/12/06 13:11:03;;;;;;;;;;;3.00;99.90;;;;;;5099900;28;20371;-80
2021/12/06 13:13:32;;;;;;;;;;;3.00;99.90;;;;;;5099293;28;19927;-79
2021/12/06 13:16:07;;;;;;;;;;;3.50;99.90;;;;;;5099392;28;20429;-79
2021/12/06 13:18:37;;;;;;;;;;;2.90;99.90;;;;;;5098722;28;19920;-79
2021/12/06 13:21:21;;;;;;;;;;;3.00;99.90;;;;;;5080943;28;19951;-79
2021/12/06 13:23:48;;;;;;;;;;;2.90;99.90;;;;;;5081440;28;19920;-79
2021/12/06 13:26:13;;;;;;;;;;;3.00;99.90;;;;;;5099179;28;19922;-79
2021/12/06 13:29:00;;;;;;;;;;;3.00;99.90;;;;;;5080655;28;20379;-79
2021/12/06 13:31:25;;;;;;;;;;;3.00;99.90;;;;;;5080269;28;19967;-79
2021/12/06 13:33:51;;;;;;;;;;;3.00;99.90;;;;;;5064555;28;20294;-79
2021/12/06 13:36:35;;;;;;;;;;;3.00;99.90;;;;;;5081053;28;19920;-79
2021/12/06 13:39:02;;;;;;;;;;;3.10;99.90;;;;;;5098547;28;20381;-79
2021/12/06 13:41:29;;;;;;;;;;;3.00;99.90;;;;;;5099022;28;19927;-79
2021/12/06 13:44:10;;;;;;;;;;;3.10;99.90;;;;;;5098455;28;19924;-80
2021/12/06 13:46:36;;;;;;;;;;;3.00;99.90;;;;;;5098907;28;19920;-79
2021/12/06 13:49:04;;;;;;;;;;;3.20;99.90;;;;;;5080748;28;19927;-80
2021/12/06 13:51:33;;;;;;;;;;;3.10;99.90;;;;;;5099530;28;19920;-79
2021/12/06 13:54:04;;;;;;;;;;;3.00;99.90;;;;;;5081386;28;19920;-79
2021/12/06 13:56:48;;;;;;;;;;;3.00;99.90;;;;;;5081313;28;19967;-79
2021/12/06 13:59:16;;;;;;;;;;;3.00;99.90;;;;;;5097921;28;19920;-79
2021/12/06 14:01:46;;;;;;;;;;;3.00;99.90;;;;;;5080881;28;19920;-79
2021/12/06 14:04:47;;;;;;;;;;;3.00;99.90;;;;;;5055999;28;19916;-79
2021/12/06 14:07:13;;;;;;;;;;;3.00;99.90;;;;;;5055674;28;19927;-79
2021/12/06 14:09:41;;;;;;;;;;;3.00;99.90;;;;;;5055345;28;19921;-79
2021/12/06 14:12:11;;;;;;;;;;;2.90;99.90;;;;;;5039185;28;19995;-79
2021/12/06 14:14:38;;;;;;;;;;;3.00;99.90;;;;;;5038639;28;19983;-79
2021/12/06 14:20:25;;;;;;;;;;;3.00;99.90;;;;;;5055489;28;20437;-79
2021/12/06 14:22:51;;;;;;;;;;;3.30;99.90;;;;;;5056085;28;19925;-79
2021/12/06 14:25:19;;;;;;;;;;;3.00;99.90;;;;;;5055283;28;19920;-79
2021/12/06 14:27:45;;;;;;;;;;;3.00;99.90;;;;;;5055764;28;20051;-80
2021/12/06 14:30:21;;;;;;;;;;;3.00;99.90;;;;;;5056194;28;19928;-80
2021/12/06 14:36:08;;;;;;;;;;;3.00;99.90;;;;;;5090150;28;19915;-80
2021/12/06 14:38:35;;;;;;;;;;;3.00;99.90;;;;;;5080428;28;19924;-79
2021/12/06 14:41:02;;;;;;;;;;;3.00;99.90;;;;;;5098769;28;19924;-80
2021/12/06 14:43:28;;;;;;;;;;;3.90;99.90;;;;;;5099069;28;19927;-79
2021/12/06 14:46:00;;;;;;;;;;;3.00;99.90;;;;;;5098306;28;19920;-79
2021/12/06 14:51:48;;;;;;;;;;;3.00;99.90;;;;;;5099697;28;19937;-80
2021/12/06 14:54:21;;;;;;;;;;;3.10;99.90;;;;;;5099114;28;19920;-79
2021/12/06 14:56:52;;;;;;;;;;;3.00;99.90;;;;;;5097886;28;19964;-79
2021/12/06 14:59:20;;;;;;;;;;;3.00;99.90;;;;;;5080237;28;19999;-79
2021/12/06 15:01:45;;;;;;;;;;;3.10;99.90;;;;;;5098062;28;19920;-79
2021/12/06 15:07:33;;;;;;;;;;;3.10;99.90;;;;;;5098024;28;19971;-79
2021/12/06 15:09:58;;;;;;;;;;;3.10;99.90;;;;;;5098204;28;19963;-80
2021/12/06 15:12:24;;;;;;;;;;;3.10;99.90;;;;;;5098293;28;19971;-79
2021/12/06 15:14:49;;;;;;;;;;;3.10;99.90;;;;;;5080720;28;19927;-79
2021/12/06 15:17:15;;;;;;;;;;;3.10;99.90;;;;;;5063613;28;19919;-80
2021/12/06 15:19:41;;;;;;;;;;;3.80;99.90;;;;;;5098773;28;19973;-80
2021/12/06 15:22:08;;;;;;;;;;;3.10;99.90;;;;;;5080730;28;19919;-80
2021/12/06 15:24:35;;;;;;;;;;;3.00;99.90;;;;;;5098518;28;19981;-80
2021/12/06 15:27:06;;;;;;;;;;;3.00;99.90;;;;;;5080843;28;19920;-80
2021/12/06 15:29:34;;;;;;;;;;;3.80;99.90;;;;;;5098204;28;19920;-80
2021/12/06 15:32:01;;;;;;;;;;;3.10;99.90;;;;;;5098010;28;19920;-80
2021/12/06 15:37:48;;;;;;;;;;;3.10;99.90;;;;;;5098162;28;19961;-80
2021/12/06 15:40:14;;;;;;;;;;;3.10;99.90;;;;;;5097996;28;20375;-80
2021/12/06 15:42:40;;;;;;;;;;;3.40;99.90;;;;;;5097914;28;19973;-79
2021/12/06 15:45:06;;;;;;;;;;;3.10;99.90;;;;;;5098586;28;20425;-80
2021/12/06 15:47:38;;;;;;;;;;;3.10;99.90;;;;;;5063162;28;19973;-80
2021/12/06 15:50:10;;;;;;;;;;;3.10;99.90;;;;;;5098527;28;19927;-80
2021/12/06 15:52:36;;;;;;;;;;;3.10;99.90;;;;;;5080487;28;19985;-80
2021/12/06 15:55:07;;;;;;;;;;;3.10;99.90;;;;;;5098809;28;19923;-80
2021/12/06 15:57:39;;;;;;;;;;;3.10;99.90;;;;;;5098081;28;20277;-80
2021/12/06 16:00:07;;;;;;;;;;;3.10;99.90;;;;;;5080246;28;19926;-80
2021/12/06 16:02:34;;;;;;;;;;;3.30;99.90;;;;;;5098725;28;19942;-80
2021/12/06 16:05:08;;;;;;;;;;;3.00;99.90;;;;;;5080442;28;20306;-80